Time;durP1;ratioP1;P1;durP2;ratioP2;P2;SDS_P1;SDS_P2;PMS_P1;PMS_P2;Temp;Humidity;BMP_temperature;BMP_pressure;BME280_temperature;BME280_humidity;BME280_pressure;Samples;Min_cycle;Max_cycle;Signal;HPM_P1;HPM_P2
2023/10/08 00:01:42;;;;;;;9.98;4.00;;;15.30;99.90;;;;;;4926448;28;91418;-71
2023/10/08 00:04:10;;;;;;;8.77;4.40;;;15.30;99.90;;;;;;4927157;28;91468;-71
2023/10/08 00:06:37;;;;;;;10.32;4.25;;;15.30;99.90;;;;;;4928393;28;87909;-71
2023/10/08 00:09:08;;;;;;;8.18;3.80;;;15.30;99.90;;;;;;4927034;28;90719;-71
2023/10/08 00:11:40;;;;;;;9.80;4.20;;;15.30;99.90;;;;;;4927931;28;88265;-71
2023/10/08 00:14:10;;;;;;;11.60;3.97;;;15.20;99.90;;;;;;4927648;28;91460;-72
2023/10/08 00:16:39;;;;;;;9.07;3.50;;;15.30;99.90;;;;;;4925899;28;87654;-72
2023/10/08 00:19:15;;;;;;;7.50;3.78;;;15.20;99.90;;;;;;4940290;28;89128;-71
2023/10/08 00:21:44;;;;;;;7.88;4.05;;;15.20;99.90;;;;;;4924677;28;92677;-71
2023/10/08 00:24:10;;;;;;;9.70;4.30;;;15.20;99.90;;;;;;4926919;28;89249;-72
2023/10/08 00:26:39;;;;;;;10.23;3.90;;;15.20;99.90;;;;;;4923567;28;87310;-71
2023/10/08 00:29:15;;;;;;;8.35;3.78;;;15.20;99.90;;;;;;4925671;28;87613;-72
2023/10/08 00:31:41;;;;;;;7.53;3.83;;;15.10;99.90;;;;;;4923465;28;91643;-71
2023/10/08 00:34:14;;;;;;;7.03;3.75;;;15.10;99.90;;;;;;4923779;28;91643;-72
2023/10/08 00:36:45;;;;;;;5.65;3.08;;;15.10;99.90;;;;;;4924252;28;87583;-71
2023/10/08 00:39:22;;;;;;;7.95;3.58;;;15.00;99.90;;;;;;4926432;28;87611;-72
2023/10/08 00:41:49;;;;;;;7.18;3.85;;;15.00;99.90;;;;;;4922630;28;95489;-71
2023/10/08 00:44:22;;;;;;;9.23;3.63;;;14.90;99.90;;;;;;4923884;28;88494;-72
2023/10/08 00:46:48;;;;;;;14.13;4.38;;;14.90;99.90;;;;;;4924484;28;88874;-71
2023/10/08 00:52:00;;;;;;;7.32;3.72;;;14.70;99.90;;;;;;4925018;28;87732;-72
2023/10/08 00:54:32;;;;;;;5.53;3.60;;;14.70;99.90;;;;;;4922736;28;91865;-72
2023/10/08 00:57:03;;;;;;;6.68;3.80;;;14.60;99.90;;;;;;4924644;28;88116;-72
2023/10/08 00:59:44;;;;;;;8.73;3.78;;;14.50;99.90;;;;;;4924492;28;88189;-72
2023/10/08 01:02:14;;;;;;;12.32;4.60;;;14.50;99.90;;;;;;4922953;28;90560;-71
2023/10/08 01:04:43;;;;;;;10.70;4.35;;;14.40;99.90;;;;;;4921961;28;89099;-71
2023/10/08 01:07:16;;;;;;;6.43;3.42;;;14.40;99.90;;;;;;4922820;28;87505;-72
2023/10/08 01:09:51;;;;;;;8.70;3.38;;;14.30;99.90;;;;;;4922549;28;88969;-72
2023/10/08 01:12:26;;;;;;;8.70;3.30;;;14.30;99.90;;;;;;4922034;28;92556;-71
2023/10/08 01:15:32;;;;;;;13.48;3.53;;;14.30;99.90;;;;;;4925717;28;89400;-71
2023/10/08 01:18:00;;;;;;;10.15;3.90;;;14.30;99.90;;;;;;4942102;28;88336;-71
2023/10/08 01:23:13;;;;;;;7.65;3.47;;;14.20;99.90;;;;;;4942514;28;88632;-72
2023/10/08 01:25:41;;;;;;;6.10;3.30;;;14.20;99.90;;;;;;4940945;28;90247;-72
2023/10/08 01:28:20;;;;;;;9.38;4.25;;;14.20;99.90;;;;;;4941175;28;87869;-72
2023/10/08 01:30:47;;;;;;;5.80;3.08;;;14.10;99.90;;;;;;4940056;28;88656;-72
2023/10/08 01:33:15;;;;;;;11.82;3.78;;;14.10;99.90;;;;;;4959262;28;91407;-71
2023/10/08 01:35:42;;;;;;;7.47;3.50;;;14.10;99.90;;;;;;4941708;28;91197;-71
2023/10/08 01:38:13;;;;;;;9.82;4.03;;;14.00;99.90;;;;;;4940143;28;88884;-71
2023/10/08 01:40:39;;;;;;;9.25;3.72;;;14.00;99.90;;;;;;4942221;28;87671;-71
2023/10/08 01:43:05;;;;;;;7.47;3.70;;;14.00;99.90;;;;;;4941029;28;91323;-71
2023/10/08 01:45:35;;;;;;;9.68;3.67;;;14.00;99.90;;;;;;4941935;28;88428;-71
2023/10/08 01:48:01;;;;;;;7.63;3.13;;;13.90;99.90;;;;;;4940732;28;87493;-72
2023/10/08 01:50:29;;;;;;;8.23;3.28;;;13.90;99.90;;;;;;4941796;28;87599;-72
2023/10/08 01:52:55;;;;;;;9.77;3.97;;;13.90;99.90;;;;;;4942808;28;88645;-72
2023/10/08 01:55:22;;;;;;;6.22;3.10;;;13.90;99.90;;;;;;4944225;28;88864;-71
2023/10/08 01:57:53;;;;;;;9.63;3.58;;;13.90;99.90;;;;;;4941266;28;88289;-72
2023/10/08 02:00:19;;;;;;;7.97;3.47;;;13.80;99.90;;;;;;4940971;28;89499;-72
2023/10/08 02:02:47;;;;;;;11.80;4.15;;;13.80;99.90;;;;;;4943061;28;89329;-71
2023/10/08 02:05:15;;;;;;;7.35;3.53;;;13.70;99.90;;;;;;4941548;28;91048;-72
2023/10/08 02:07:44;;;;;;;6.60;3.38;;;13.70;99.90;;;;;;4940855;28;87979;-71
2023/10/08 02:10:10;;;;;;;9.13;3.38;;;13.70;99.90;;;;;;4942121;28;87646;-71
2023/10/08 02:12:40;;;;;;;8.68;3.40;;;13.70;99.90;;;;;;4941062;28;91843;-71
2023/10/08 02:15:07;;;;;;;10.05;4.00;;;13.60;99.90;;;;;;4941448;28;91472;-72
2023/10/08 02:17:36;;;;;;;8.85;3.42;;;13.60;99.90;;;;;;4940354;28;88019;-71
2023/10/08 02:20:05;;;;;;;8.65;3.45;;;13.60;99.90;;;;;;4940959;28;90987;-72
2023/10/08 02:22:31;;;;;;;8.07;3.65;;;13.60;99.90;;;;;;4940113;28;91843;-71
2023/10/08 02:25:01;;;;;;;11.40;3.75;;;13.60;99.90;;;;;;4940387;28;90144;-72
2023/10/08 02:27:28;;;;;;;8.45;3.65;;;13.60;99.90;;;;;;4939391;28;89277;-71
2023/10/08 02:29:54;;;;;;;7.13;3.42;;;13.60;99.90;;;;;;4939825;28;90454;-71
2023/10/08 02:32:22;;;;;;;8.27;3.55;;;13.60;99.90;;;;;;4925548;28;88241;-71
2023/10/08 02:34:49;;;;;;;7.00;3.25;;;13.60;99.90;;;;;;4921551;28;89759;-72
2023/10/08 02:37:15;;;;;;;7.93;3.90;;;13.60;99.90;;;;;;4922257;28;88197;-71
2023/10/08 02:39:41;;;;;;;14.52;4.22;;;13.60;99.90;;;;;;4922567;28;87645;-72
2023/10/08 02:42:10;;;;;;;8.90;3.70;;;13.60;99.90;;;;;;4923492;28;88139;-71
2023/10/08 02:44:41;;;;;;;8.63;3.92;;;13.60;99.90;;;;;;4920766;28;92112;-71
2023/10/08 02:47:16;;;;;;;7.82;3.28;;;13.60;99.90;;;;;;4921159;28;87740;-71
2023/10/08 02:49:42;;;;;;;8.85;3.70;;;13.60;99.90;;;;;;4923221;28;88328;-71
2023/10/08 02:52:12;;;;;;;6.50;3.00;;;13.60;99.90;;;;;;4922017;28;89077;-71
2023/10/08 02:54:38;;;;;;;11.90;3.67;;;13.60;99.90;;;;;;4921473;28;88771;-72
2023/10/08 02:57:04;;;;;;;7.20;3.38;;;13.60;99.90;;;;;;4923092;28;88342;-71
2023/10/08 02:59:40;;;;;;;7.47;3.72;;;13.60;99.90;;;;;;4935823;28;90163;-71
2023/10/08 03:02:21;;;;;;;9.65;3.78;;;13.60;99.90;;;;;;4924167;28;89604;-71
2023/10/08 03:04:50;;;;;;;6.78;3.28;;;13.60;99.90;;;;;;4956297;28;95720;-74
2023/10/08 03:07:23;;;;;;;10.13;3.45;;;13.60;99.90;;;;;;4923809;28;88126;-71
2023/10/08 03:09:51;;;;;;;7.55;3.75;;;13.60;99.90;;;;;;4925188;28;91185;-71
2023/10/08 03:12:17;;;;;;;7.82;3.45;;;13.60;99.90;;;;;;4940395;28;90186;-72
2023/10/08 03:15:01;;;;;;;7.20;3.28;;;13.60;99.90;;;;;;4958413;28;96102;-72
2023/10/08 03:17:29;;;;;;;10.55;3.92;;;13.60;99.90;;;;;;4941404;28;88662;-71
2023/10/08 03:20:01;;;;;;;8.63;3.47;;;13.60;99.90;;;;;;4943462;28;90723;-72
2023/10/08 03:22:44;;;;;;;8.43;3.05;;;13.60;99.90;;;;;;4945744;28;88816;-71
2023/10/08 03:25:16;;;;;;;6.65;4.00;;;13.60;99.90;;;;;;4943816;28;91444;-72
2023/10/08 03:27:42;;;;;;;6.18;3.30;;;13.60;99.90;;;;;;4944836;28;87951;-72
2023/10/08 03:30:14;;;;;;;8.93;3.55;;;13.60;99.90;;;;;;4943101;28;90624;-71
2023/10/08 03:33:04;;;;;;;7.70;3.35;;;13.60;99.90;;;;;;4942032;28;91974;-71
2023/10/08 03:35:36;;;;;;;5.80;3.35;;;13.60;99.90;;;;;;4959882;28;91491;-72
2023/10/08 03:38:18;;;;;;;10.15;3.95;;;13.50;99.90;;;;;;4944259;28;87740;-72
2023/10/08 03:40:48;;;;;;;6.80;3.55;;;13.50;99.90;;;;;;4943252;28;87769;-72
2023/10/08 03:43:33;;;;;;;7.03;3.10;;;13.50;99.90;;;;;;4941733;28;93046;-71
2023/10/08 03:46:05;;;;;;;5.20;2.47;;;13.60;99.90;;;;;;4944310;28;89843;-71
2023/10/08 03:48:36;;;;;;;7.28;2.85;;;13.50;99.90;;;;;;4942773;28;88420;-71
2023/10/08 03:51:06;;;;;;;13.20;3.53;;;13.60;99.90;;;;;;4945456;28;87423;-71
2023/10/08 03:53:42;;;;;;;10.63;4.00;;;13.50;99.90;;;;;;4942888;28;91750;-71
2023/10/08 03:56:08;;;;;;;8.85;3.53;;;13.50;99.90;;;;;;4943416;28;91588;-71
2023/10/08 03:58:40;;;;;;;8.63;3.80;;;13.50;99.90;;;;;;4943698;28;87935;-72
2023/10/08 04:01:10;;;;;;;6.90;3.30;;;13.50;99.90;;;;;;4943371;28;90584;-72
2023/10/08 04:04:12;;;;;;;9.65;4.20;;;13.50;99.90;;;;;;4939547;28;90453;-71
2023/10/08 04:06:30;;;;;;;8.70;3.35;;;13.50;99.90;;;;;;4922418;28;89826;-71
2023/10/08 04:11:49;;;;;;;10.82;4.07;;;13.40;99.90;;;;;;4923808;28;87801;-71
2023/10/08 04:14:18;;;;;;;11.07;3.85;;;13.40;99.90;;;;;;4925136;28;89326;-72
2023/10/08 04:16:45;;;;;;;8.30;3.70;;;13.30;99.90;;;;;;4956565;28;91306;-71
2023/10/08 04:19:12;;;;;;;13.52;4.40;;;13.30;99.90;;;;;;4922389;28;87382;-71
2023/10/08 04:21:42;;;;;;;7.60;3.22;;;13.20;99.90;;;;;;4922535;28;91565;-71
2023/10/08 04:24:08;;;;;;;7.97;3.55;;;13.20;99.90;;;;;;4925712;28;88215;-72
2023/10/08 04:26:40;;;;;;;9.15;3.42;;;13.10;99.90;;;;;;4925403;28;88791;-72
2023/10/08 04:29:08;;;;;;;10.80;3.85;;;13.10;99.90;;;;;;4922480;28;87846;-72
2023/10/08 04:31:43;;;;;;;9.65;3.70;;;13.10;99.90;;;;;;4922191;28;90740;-72
2023/10/08 04:34:15;;;;;;;7.10;3.38;;;13.00;99.90;;;;;;4923869;28;89282;-72
2023/10/08 04:36:53;;;;;;;6.95;2.97;;;13.00;99.90;;;;;;4924937;28;89916;-71
2023/10/08 04:39:26;;;;;;;6.95;3.40;;;13.00;99.90;;;;;;4923008;28;87968;-72
2023/10/08 04:41:58;;;;;;;8.68;3.92;;;13.00;99.90;;;;;;4941882;28;90829;-71
2023/10/08 04:44:25;;;;;;;8.17;3.23;;;13.00;99.90;;;;;;4943196;28;89156;-71
2023/10/08 04:46:52;;;;;;;9.38;3.33;;;12.90;99.90;;;;;;4942899;28;87932;-71
2023/10/08 04:49:28;;;;;;;7.20;3.38;;;13.00;99.90;;;;;;4941406;28;87055;-71
2023/10/08 04:52:14;;;;;;;8.52;4.30;;;12.90;99.90;;;;;;4942588;28;87793;-71
2023/10/08 04:54:46;;;;;;;10.73;4.00;;;12.80;99.90;;;;;;4942506;28;89117;-71
2023/10/08 04:57:15;;;;;;;7.28;3.47;;;12.80;99.90;;;;;;4944125;28;91109;-72
2023/10/08 04:59:42;;;;;;;8.93;3.65;;;12.80;99.90;;;;;;4942641;28;88904;-72
2023/10/08 05:02:34;;;;;;;7.13;3.45;;;12.70;99.90;;;;;;4941245;28;90467;-71
2023/10/08 05:34:32;;;;;;;8.05;3.40;;;12.60;99.90;;;;;;4942451;28;88134;-71
2023/10/08 05:39:40;;;;;;;8.52;4.25;;;12.60;99.90;;;;;;4941206;28;88255;-71
2023/10/08 05:42:31;;;;;;;8.65;3.83;;;12.60;99.90;;;;;;4942051;28;88287;-71
2023/10/08 05:46:19;;;;;;;11.82;3.80;;;12.60;99.90;;;;;;4943368;28;91408;-71
2023/10/08 05:48:07;;;;;;;8.98;4.45;;;12.50;99.90;;;;;;4929326;28;92764;-71
2023/10/08 05:50:55;;;;;;;9.07;4.32;;;12.50;99.90;;;;;;4942638;28;88421;-73
2023/10/08 05:53:29;;;;;;;9.38;3.95;;;12.50;99.90;;;;;;4942636;28;89198;-71
2023/10/08 05:56:16;;;;;;;8.93;4.00;;;12.50;99.90;;;;;;4944040;28;88264;-69
2023/10/08 05:59:00;;;;;;;8.90;3.90;;;12.50;99.90;;;;;;4943419;28;88487;-72
2023/10/08 06:01:39;;;;;;;7.82;3.60;;;12.40;99.90;;;;;;4934658;28;89069;-71
2023/10/08 06:04:30;;;;;;;7.03;3.67;;;12.40;99.90;;;;;;4922343;28;87679;-71
2023/10/08 06:07:12;;;;;;;9.00;3.85;;;12.40;99.90;;;;;;4923449;28;87978;-73
2023/10/08 06:09:37;;;;;;;9.88;4.28;;;12.30;99.90;;;;;;4923984;28;88331;-72
2023/10/08 06:12:10;;;;;;;7.57;3.78;;;12.30;99.90;;;;;;4923518;28;90254;-72
2023/10/08 06:15:37;;;;;;;9.10;4.25;;;12.30;99.90;;;;;;4923729;28;87989;-71
2023/10/08 06:20:09;;;;;;;11.63;4.32;;;12.30;99.90;;;;;;4940246;28;88829;-72
2023/10/08 06:22:36;;;;;;;8.65;4.18;;;12.20;99.90;;;;;;4940959;28;91890;-73
2023/10/08 06:25:16;;;;;;;9.95;4.03;;;12.30;99.90;;;;;;4942106;28;87912;-71
2023/10/08 06:27:41;;;;;;;10.43;4.47;;;12.30;99.90;;;;;;4940673;28;90164;-71
2023/10/08 06:30:16;;;;;;;11.98;4.97;;;12.30;99.90;;;;;;4942837;28;88072;-72
2023/10/08 06:32:45;;;;;;;13.07;4.28;;;12.30;99.90;;;;;;4940908;28;95268;-73
2023/10/08 06:35:18;;;;;;;8.68;3.65;;;12.40;99.90;;;;;;4943536;28;88056;-74
2023/10/08 06:37:49;;;;;;;12.98;5.00;;;12.30;99.90;;;;;;4945746;28;88729;-75
2023/10/08 06:43:11;;;;;;;8.15;4.30;;;12.40;99.90;;;;;;4945882;28;87763;-73
2023/10/08 06:45:39;;;;;;;10.77;5.00;;;12.50;99.90;;;;;;4946652;28;88612;-72
2023/10/08 06:48:06;;;;;;;8.63;4.15;;;12.50;99.90;;;;;;4946391;28;88465;-73
2023/10/08 06:50:35;;;;;;;8.80;4.07;;;12.60;99.90;;;;;;4942934;28;90571;-73
2023/10/08 06:53:08;;;;;;;12.43;3.95;;;12.70;99.90;;;;;;4942228;28;91370;-71
2023/10/08 06:55:38;;;;;;;7.70;4.00;;;12.80;99.90;;;;;;4943879;28;88434;-71
2023/10/08 06:58:11;;;;;;;9.60;3.78;;;12.80;99.90;;;;;;4942313;28;89714;-72
2023/10/08 07:00:46;;;;;;;9.55;4.32;;;12.90;99.90;;;;;;4941782;28;91873;-73
2023/10/08 07:03:15;;;;;;;11.27;4.53;;;13.00;99.90;;;;;;4945019;28;91437;-72
2023/10/08 07:05:44;;;;;;;9.65;3.67;;;13.10;99.90;;;;;;4951107;28;87859;-71
2023/10/08 07:08:13;;;;;;;10.50;4.15;;;13.20;99.90;;;;;;4945941;28;88357;-73
2023/10/08 07:10:45;;;;;;;9.02;4.00;;;13.30;99.90;;;;;;4944731;28;92891;-72
2023/10/08 07:13:11;;;;;;;9.98;4.50;;;13.40;99.90;;;;;;4944960;28;88810;-73
2023/10/08 07:15:38;;;;;;;8.15;4.82;;;13.50;99.90;;;;;;4942364;28;88383;-72
2023/10/08 07:18:09;;;;;;;10.90;5.45;;;13.60;99.90;;;;;;4945894;28;87881;-72
2023/10/08 07:20:38;;;;;;;12.07;4.97;;;13.70;99.90;;;;;;4945217;28;91699;-72
2023/10/08 07:23:18;;;;;;;9.48;4.72;;;13.80;99.90;;;;;;4943815;28;91630;-72
2023/10/08 07:25:46;;;;;;;10.68;4.60;;;13.90;99.90;;;;;;4944467;28;87829;-72
2023/10/08 07:28:13;;;;;;;9.15;4.72;;;14.10;99.90;;;;;;4941784;28;90944;-74
2023/10/08 07:30:44;;;;;;;10.63;4.82;;;14.20;99.90;;;;;;4942194;28;92341;-72
2023/10/08 07:33:17;;;;;;;14.63;5.13;;;14.20;99.90;;;;;;4944561;28;92916;-73
2023/10/08 07:35:57;;;;;;;11.57;5.05;;;14.30;99.90;;;;;;4944413;28;88882;-72
2023/10/08 07:38:30;;;;;;;11.10;5.32;;;14.40;99.90;;;;;;4943431;28;90746;-72
2023/10/08 07:41:00;;;;;;;11.40;5.10;;;14.50;99.90;;;;;;4941902;28;91809;-72
2023/10/08 07:43:26;;;;;;;11.82;4.68;;;14.60;99.90;;;;;;4942173;28;91198;-73
2023/10/08 07:45:53;;;;;;;12.95;5.22;;;14.70;99.90;;;;;;4943221;28;90870;-72
2023/10/08 07:48:20;;;;;;;10.70;5.10;;;14.70;99.90;;;;;;4944808;28;87449;-72
2023/10/08 07:50:50;;;;;;;11.77;5.22;;;14.80;99.90;;;;;;4943087;28;92243;-73
2023/10/08 07:53:19;;;;;;;10.20;5.05;;;14.90;99.90;;;;;;4943969;28;88606;-71
2023/10/08 07:55:47;;;;;;;11.95;5.43;;;14.90;99.90;;;;;;4942030;28;87660;-72
2023/10/08 07:58:14;;;;;;;11.55;4.40;;;15.00;99.90;;;;;;4942123;28;90163;-72
2023/10/08 08:00:40;;;;;;;11.52;5.13;;;15.10;99.90;;;;;;4944002;28;89776;-73
2023/10/08 08:03:07;;;;;;;9.52;4.70;;;15.20;99.90;;;;;;4945204;28;89994;-73
2023/10/08 08:05:33;;;;;;;13.23;5.50;;;15.30;99.90;;;;;;4943609;28;87811;-72
2023/10/08 08:08:05;;;;;;;12.15;4.93;;;15.30;99.90;;;;;;4940271;28;90846;-73
2023/10/08 08:10:36;;;;;;;14.27;6.13;;;15.40;99.90;;;;;;4941682;28;90304;-74
2023/10/08 08:13:05;;;;;;;12.23;4.97;;;15.50;99.90;;;;;;4941552;28;90397;-72
2023/10/08 08:15:33;;;;;;;11.65;5.68;;;15.60;99.90;;;;;;4940693;28;88381;-73
2023/10/08 08:17:58;;;;;;;17.60;5.97;;;15.70;99.90;;;;;;4926570;28;87192;-72
2023/10/08 08:20:34;;;;;;;9.70;4.85;;;15.80;99.90;;;;;;4924086;28;87831;-72
2023/10/08 08:23:06;;;;;;;12.15;5.00;;;15.90;99.90;;;;;;4925346;28;87813;-72
2023/10/08 08:25:45;;;;;;;11.48;5.38;;;16.00;99.90;;;;;;4921088;28;91371;-73
2023/10/08 08:28:19;;;;;;;13.77;5.32;;;16.00;99.90;;;;;;4923580;28;87600;-72
2023/10/08 08:30:52;;;;;;;9.93;4.93;;;16.20;99.90;;;;;;4922736;28;90665;-72
2023/10/08 08:33:22;;;;;;;14.00;5.30;;;16.30;99.90;;;;;;4924389;28;92206;-73
2023/10/08 08:35:59;;;;;;;10.48;4.82;;;16.40;99.90;;;;;;4923922;28;87680;-73
2023/10/08 08:38:25;;;;;;;12.45;5.40;;;16.50;99.90;;;;;;4922745;28;90097;-72
2023/10/08 08:40:51;;;;;;;11.95;5.45;;;16.50;99.90;;;;;;4923158;28;88700;-72
2023/10/08 08:43:18;;;;;;;11.48;5.07;;;16.60;99.90;;;;;;4923597;28;90122;-71
2023/10/08 08:45:45;;;;;;;15.73;5.85;;;16.80;99.90;;;;;;4924059;28;88430;-73
2023/10/08 08:48:14;;;;;;;15.98;6.10;;;16.80;99.90;;;;;;4924209;28;90325;-72
2023/10/08 08:50:39;;;;;;;12.43;5.60;;;17.00;99.90;;;;;;4924481;28;88822;-73
2023/10/08 08:53:05;;;;;;;10.05;5.30;;;17.10;99.90;;;;;;4937769;28;89677;-72
2023/10/08 08:55:33;;;;;;;12.50;5.13;;;17.30;99.90;;;;;;4941155;28;87871;-73
2023/10/08 08:57:59;;;;;;;9.88;6.03;;;17.40;99.90;;;;;;4940956;28;88166;-72
2023/10/08 09:00:28;;;;;;;13.02;5.70;;;17.50;99.90;;;;;;4938518;28;90209;-72
2023/10/08 09:02:55;;;;;;;15.77;6.47;;;17.60;99.90;;;;;;4923366;28;90892;-73
2023/10/08 09:05:25;;;;;;;11.43;5.50;;;17.70;99.90;;;;;;4924341;28;88785;-73
2023/10/08 09:07:58;;;;;;;26.30;5.95;;;17.90;99.90;;;;;;4922866;28;90313;-75
2023/10/08 09:10:27;;;;;;;12.90;5.63;;;18.00;99.90;;;;;;4922362;28;91454;-74
2023/10/08 09:12:53;;;;;;;25.05;6.50;;;18.10;99.90;;;;;;4922675;28;91082;-73
2023/10/08 09:15:22;;;;;;;17.63;6.00;;;18.20;99.90;;;;;;4920706;28;88872;-73
2023/10/08 09:17:49;;;;;;;14.45;5.70;;;18.30;99.90;;;;;;4927088;28;88027;-74
2023/10/08 09:20:15;;;;;;;15.98;5.55;;;18.50;99.90;;;;;;4924136;28;88163;-74
2023/10/08 09:22:41;;;;;;;15.15;5.57;;;18.60;99.90;;;;;;4922485;28;91036;-74
2023/10/08 09:25:07;;;;;;;13.00;6.03;;;18.70;99.90;;;;;;4922963;28;88231;-75
2023/10/08 09:27:33;;;;;;;21.67;7.25;;;18.80;99.90;;;;;;4922300;28;90938;-75
2023/10/08 09:30:07;;;;;;;14.85;5.78;;;19.00;99.90;;;;;;4923230;28;91784;-75
2023/10/08 09:32:33;;;;;;;16.38;6.55;;;19.00;99.90;;;;;;4924086;28;91403;-74
2023/10/08 09:35:00;;;;;;;21.42;6.47;;;19.20;99.90;;;;;;4924125;28;87973;-74
2023/10/08 09:37:26;;;;;;;11.98;5.45;;;19.20;99.90;;;;;;4921631;28;90656;-74
2023/10/08 09:39:54;;;;;;;14.82;5.90;;;19.40;99.80;;;;;;4924094;28;89988;-74
2023/10/08 09:42:22;;;;;;;12.70;5.32;;;19.50;99.60;;;;;;4921721;28;91750;-74
2023/10/08 09:44:48;;;;;;;13.70;5.43;;;19.60;99.20;;;;;;4923582;28;88290;-74
2023/10/08 09:47:21;;;;;;;14.73;5.95;;;19.70;99.00;;;;;;4924515;28;87604;-74
2023/10/08 09:50:01;;;;;;;18.83;4.97;;;19.80;99.20;;;;;;4923571;28;88148;-74
2023/10/08 09:52:47;;;;;;;18.35;6.20;;;20.00;98.70;;;;;;4921997;28;91381;-74
2023/10/08 09:55:17;;;;;;;11.98;5.35;;;20.10;98.30;;;;;;4923989;28;88120;-74
2023/10/08 09:57:43;;;;;;;13.57;5.70;;;20.30;98.30;;;;;;4924603;28;87412;-74
2023/10/08 10:00:14;;;;;;;15.73;6.30;;;20.40;98.10;;;;;;4924393;28;88592;-74
2023/10/08 10:02:42;;;;;;;20.73;6.20;;;20.60;97.90;;;;;;4922367;28;91334;-74
2023/10/08 10:05:11;;;;;;;13.82;5.63;;;20.70;98.30;;;;;;4921459;28;89041;-74
2023/10/08 10:07:43;;;;;;;12.13;6.10;;;20.90;97.80;;;;;;4923407;28;87813;-74
2023/10/08 10:10:31;;;;;;;12.32;5.25;;;21.00;98.10;;;;;;4924633;28;91610;-74
2023/10/08 10:13:18;;;;;;;15.15;6.45;;;21.30;97.60;;;;;;4932691;28;91366;-75
2023/10/08 10:15:44;;;;;;;13.60;5.75;;;21.40;96.20;;;;;;4926637;28;88222;-74
2023/10/08 10:18:28;;;;;;;11.63;5.13;;;21.50;96.50;;;;;;4926430;28;90274;-74
2023/10/08 10:21:00;;;;;;;14.35;5.57;;;21.70;96.80;;;;;;4944909;28;96461;-74
2023/10/08 10:23:39;;;;;;;15.35;6.45;;;21.90;96.20;;;;;;4947654;28;87423;-75
2023/10/08 10:26:25;;;;;;;17.48;6.10;;;22.10;96.30;;;;;;4961745;28;87928;-76
2023/10/08 10:29:10;;;;;;;14.90;6.35;;;22.20;94.90;;;;;;4945975;28;89022;-75
2023/10/08 10:31:37;;;;;;;13.52;5.85;;;22.50;95.00;;;;;;4959557;28;91931;-75
2023/10/08 10:34:08;;;;;;;14.63;5.40;;;22.70;95.50;;;;;;4945775;28;88368;-75
2023/10/08 10:36:35;;;;;;;14.38;5.45;;;22.90;95.00;;;;;;4945437;28;87903;-76
2023/10/08 10:39:02;;;;;;;18.42;7.53;;;23.00;93.80;;;;;;4946444;28;88216;-76
2023/10/08 10:41:28;;;;;;;21.80;5.78;;;23.10;92.80;;;;;;4944008;28;91790;-75
2023/10/08 10:43:53;;;;;;;14.57;5.72;;;23.10;93.20;;;;;;4945729;28;87642;-75
2023/10/08 10:46:31;;;;;;;22.73;6.15;;;23.20;93.30;;;;;;4945931;28;87833;-75
2023/10/08 10:49:17;;;;;;;13.30;6.05;;;23.40;93.10;;;;;;4946635;28;89913;-76
2023/10/08 10:51:43;;;;;;;18.63;7.00;;;23.50;93.80;;;;;;4946179;28;89217;-75
2023/10/08 10:54:19;;;;;;;15.68;6.22;;;23.70;93.80;;;;;;4946571;28;88011;-76
2023/10/08 10:56:47;;;;;;;13.32;6.35;;;23.70;92.10;;;;;;4945099;28;89440;-76
2023/10/08 10:59:18;;;;;;;11.38;5.97;;;23.90;91.90;;;;;;4944681;28;89120;-76
2023/10/08 11:01:52;;;;;;;13.23;5.65;;;24.00;93.00;;;;;;4946164;28;88709;-75
2023/10/08 11:04:19;;;;;;;18.63;6.75;;;24.20;91.20;;;;;;4947353;28;88975;-75
2023/10/08 11:06:50;;;;;;;17.05;6.70;;;24.20;91.30;;;;;;4945027;28;87652;-76
2023/10/08 11:09:27;;;;;;;15.82;6.00;;;24.30;91.90;;;;;;4947598;28;88100;-76
2023/10/08 11:11:59;;;;;;;19.05;6.78;;;24.40;91.30;;;;;;4945743;28;93146;-77
2023/10/08 11:14:25;;;;;;;12.23;6.20;;;24.40;91.40;;;;;;4944232;28;87381;-77
2023/10/08 11:16:51;;;;;;;14.48;5.70;;;24.40;91.00;;;;;;4943314;28;87724;-76
2023/10/08 11:19:19;;;;;;;15.55;5.85;;;24.40;90.80;;;;;;4942652;28;91309;-76
2023/10/08 11:21:55;;;;;;;11.45;5.00;;;24.40;91.10;;;;;;4942929;28;92555;-72
2023/10/08 11:24:33;;;;;;;13.95;6.00;;;24.60;92.20;;;;;;4944917;28;92357;-77
2023/10/08 11:27:28;;;;;;;14.10;5.47;;;24.80;91.50;;;;;;4945013;28;87766;-76
2023/10/08 11:29:53;;;;;;;18.13;6.68;;;25.00;91.60;;;;;;4944592;28;91878;-75
2023/10/08 11:32:25;;;;;;;14.90;6.20;;;25.10;88.60;;;;;;4945265;28;88674;-75
2023/10/08 11:35:01;;;;;;;16.02;5.80;;;25.20;90.10;;;;;;4944767;28;87999;-74
2023/10/08 11:37:35;;;;;;;16.33;5.82;;;25.10;90.30;;;;;;4944774;28;90355;-75
2023/10/08 11:40:17;;;;;;;12.80;6.15;;;25.20;89.60;;;;;;4944470;28;89787;-75
2023/10/08 11:42:51;;;;;;;11.70;5.22;;;25.30;88.80;;;;;;4941945;28;90910;-76
2023/10/08 11:45:37;;;;;;;14.57;5.60;;;25.40;88.40;;;;;;4944823;28;91960;-75
2023/10/08 11:48:21;;;;;;;18.45;5.88;;;25.40;88.70;;;;;;4943701;28;88692;-75
2023/10/08 11:50:50;;;;;;;16.58;5.95;;;25.50;86.60;;;;;;4947793;28;89565;-75
2023/10/08 11:53:18;;;;;;;14.45;5.43;;;25.50;86.40;;;;;;4945017;28;90003;-75
2023/10/08 11:55:44;;;;;;;12.52;5.32;;;25.70;88.40;;;;;;4945810;28;89477;-75
2023/10/08 11:58:10;;;;;;;14.93;6.15;;;25.70;85.30;;;;;;4946031;28;87580;-75
2023/10/08 12:00:52;;;;;;;13.00;5.28;;;25.80;84.60;;;;;;4944505;28;88150;-75
2023/10/08 12:03:18;;;;;;;12.68;5.03;;;26.00;88.10;;;;;;4943656;28;92250;-74
2023/10/08 12:05:48;;;;;;;13.30;5.43;;;26.10;86.90;;;;;;4948431;28;87983;-74
2023/10/08 12:08:16;;;;;;;15.32;5.35;;;26.20;85.60;;;;;;4945979;28;88443;-74
2023/10/08 12:10:52;;;;;;;14.25;5.50;;;26.30;81.90;;;;;;4943350;28;87946;-74
2023/10/08 12:13:24;;;;;;;11.90;5.25;;;26.20;82.40;;;;;;4958515;28;92554;-74
2023/10/08 12:15:51;;;;;;;13.80;4.90;;;26.30;82.30;;;;;;4943219;28;91679;-75
2023/10/08 12:18:26;;;;;;;14.75;5.45;;;26.40;81.10;;;;;;4943150;28;88278;-74
2023/10/08 12:20:53;;;;;;;14.23;4.68;;;26.40;82.00;;;;;;4945921;28;89876;-74
2023/10/08 12:23:25;;;;;;;15.48;5.93;;;26.60;83.80;;;;;;4944705;28;91490;-75
2023/10/08 12:25:54;;;;;;;12.88;5.10;;;26.60;81.00;;;;;;4944191;28;91631;-74
2023/10/08 12:28:20;;;;;;;15.13;4.75;;;26.80;81.80;;;;;;4945077;28;88416;-75
2023/10/08 12:30:46;;;;;;;11.95;4.82;;;27.10;83.20;;;;;;4946192;28;87370;-74
2023/10/08 12:33:15;;;;;;;14.82;5.30;;;27.40;83.50;;;;;;4947318;28;88645;-75
2023/10/08 12:35:44;;;;;;;13.15;5.45;;;27.70;78.20;;;;;;4944220;28;91447;-75
2023/10/08 12:38:10;;;;;;;12.43;4.43;;;27.90;78.30;;;;;;4944220;28;88473;-74
2023/10/08 12:40:47;;;;;;;9.68;5.10;;;28.10;75.00;;;;;;4944825;28;88097;-75
2023/10/08 12:43:19;;;;;;;14.45;5.30;;;28.10;73.80;;;;;;4944061;28;90615;-74
2023/10/08 12:45:52;;;;;;;13.35;5.57;;;28.20;75.80;;;;;;4945190;28;88473;-74
2023/10/08 12:48:26;;;;;;;14.10;5.15;;;28.30;73.30;;;;;;4944674;28;87765;-75
2023/10/08 12:50:58;;;;;;;9.55;4.85;;;28.50;72.70;;;;;;4944709;28;88357;-75
2023/10/08 12:53:36;;;;;;;17.02;5.53;;;28.70;74.90;;;;;;4943979;28;88212;-74
2023/10/08 12:56:06;;;;;;;11.40;5.40;;;29.00;71.50;;;;;;4943477;28;92926;-75
2023/10/08 12:58:41;;;;;;;10.23;5.00;;;29.20;68.20;;;;;;4958874;28;87830;-74
2023/10/08 13:01:09;;;;;;;12.93;4.93;;;29.40;68.40;;;;;;4943107;28;90092;-74
2023/10/08 13:03:41;;;;;;;16.05;5.35;;;29.50;67.00;;;;;;4942823;28;92486;-75
2023/10/08 13:06:11;;;;;;;15.10;4.95;;;29.70;71.10;;;;;;4946639;28;89254;-75
2023/10/08 13:08:37;;;;;;;11.40;4.85;;;29.80;65.10;;;;;;4944093;28;87843;-75
2023/10/08 13:11:03;;;;;;;15.63;4.68;;;30.00;66.40;;;;;;4944188;28;90621;-74
2023/10/08 13:13:30;;;;;;;16.00;5.20;;;30.20;65.90;;;;;;4943494;28;91529;-75
2023/10/08 13:15:58;;;;;;;15.18;5.13;;;30.30;64.70;;;;;;4941412;28;90749;-75
2023/10/08 13:18:26;;;;;;;11.85;5.07;;;30.30;63.50;;;;;;4943081;28;87814;-75
2023/10/08 13:20:53;;;;;;;13.65;4.95;;;30.20;62.10;;;;;;4943316;28;90245;-76
2023/10/08 13:23:23;;;;;;;12.25;4.72;;;30.40;62.50;;;;;;4942676;28;92367;-75
2023/10/08 13:26:04;;;;;;;12.23;4.93;;;30.60;62.50;;;;;;4943988;28;87877;-75
2023/10/08 13:28:33;;;;;;;11.57;4.70;;;30.60;62.30;;;;;;4958252;28;88653;-75
2023/10/08 13:31:11;;;;;;;13.05;4.20;;;30.70;59.70;;;;;;4942876;28;87658;-75
2023/10/08 13:33:42;;;;;;;13.30;4.88;;;30.80;63.00;;;;;;4942884;28;89528;-75
2023/10/08 13:36:13;;;;;;;12.55;4.25;;;30.90;60.70;;;;;;4943762;28;87660;-74
2023/10/08 13:38:40;;;;;;;12.27;5.40;;;31.10;60.30;;;;;;4941009;28;88078;-72
2023/10/08 13:41:16;;;;;;;15.85;5.47;;;31.30;57.80;;;;;;4942580;28;90768;-73
2023/10/08 13:43:46;;;;;;;17.10;4.78;;;31.40;56.40;;;;;;4941226;28;91061;-74
2023/10/08 13:46:17;;;;;;;9.57;4.43;;;31.60;56.30;;;;;;4944433;28;88925;-73
2023/10/08 13:48:50;;;;;;;12.63;4.22;;;31.80;55.50;;;;;;4944641;28;87871;-73